Time;durP1;ratioP1;P1;durP2;ratioP2;P2;SDS_P1;SDS_P2;PMS_P1;PMS_P2;Temp;Humidity;BMP_temperature;BMP_pressure;BME280_temperature;BME280_humidity;BME280_pressure;Samples;Min_cycle;Max_cycle;Signal;HPM_P1;HPM_P2
2021/03/22 00:01:59;;;;;;;;;;;23.60;37.50;;;;;;1593290;73;1236;-60
2021/03/22 00:04:01;;;;;;;;;;;23.60;37.50;;;;;;1595156;73;801;-61
2021/03/22 00:06:03;;;;;;;;;;;23.60;37.60;;;;;;1596956;73;755;-61
2021/03/22 00:08:05;;;;;;;;;;;23.60;37.60;;;;;;1600394;73;742;-60
2021/03/22 00:10:07;;;;;;;;;;;23.70;37.60;;;;;;1599630;72;749;-61
2021/03/22 00:12:09;;;;;;;;;;;23.70;37.70;;;;;;1594845;73;1170;-59
2021/03/22 00:14:11;;;;;;;;;;;23.70;37.70;;;;;;1591901;73;811;-61
2021/03/22 00:16:13;;;;;;;;;;;23.60;37.80;;;;;;1600957;73;785;-62
2021/03/22 00:18:16;;;;;;;;;;;23.60;37.80;;;;;;1596253;72;794;-58
2021/03/22 00:20:18;;;;;;;;;;;23.60;37.70;;;;;;1599994;73;1941;-59
2021/03/22 00:22:20;;;;;;;;;;;23.60;37.80;;;;;;1595377;72;1155;-62
2021/03/22 00:24:22;;;;;;;;;;;23.60;37.80;;;;;;1597093;73;812;-62
2021/03/22 00:26:24;;;;;;;;;;;23.60;37.80;;;;;;1601350;73;737;-62
2021/03/22 00:28:26;;;;;;;;;;;23.60;37.90;;;;;;1601054;72;761;-61
2021/03/22 00:30:32;;;;;;;;;;;23.60;37.80;;;;;;1596787;73;789;-60
2021/03/22 00:32:34;;;;;;;;;;;23.60;37.80;;;;;;1605626;73;1139;-59
2021/03/22 00:34:36;;;;;;;;;;;23.60;38.10;;;;;;1599903;73;740;-60
2021/03/22 00:36:38;;;;;;;;;;;23.60;38.20;;;;;;1596679;72;764;-61
2021/03/22 00:38:39;;;;;;;;;;;23.70;38.40;;;;;;1599354;72;764;-60
2021/03/22 00:40:42;;;;;;;;;;;23.70;38.20;;;;;;1601028;73;1948;-57
2021/03/22 00:42:44;;;;;;;;;;;23.70;38.10;;;;;;1591735;72;1158;-61
2021/03/22 00:44:46;;;;;;;;;;;23.70;37.90;;;;;;1596513;73;756;-61
2021/03/22 00:46:48;;;;;;;;;;;23.80;38.00;;;;;;1601579;72;958;-58
2021/03/22 00:48:50;;;;;;;;;;;23.70;37.90;;;;;;1596647;72;814;-56
2021/03/22 00:50:52;;;;;;;;;;;23.80;37.80;;;;;;1604306;72;933;-58
2021/03/22 00:52:54;;;;;;;;;;;23.80;37.80;;;;;;1591937;73;1178;-61
2021/03/22 00:54:56;;;;;;;;;;;23.80;37.80;;;;;;1596521;72;763;-61
2021/03/22 00:56:58;;;;;;;;;;;23.80;37.80;;;;;;1600347;72;777;-61
2021/03/22 00:58:59;;;;;;;;;;;23.80;37.90;;;;;;1598294;73;1944;-62
2021/03/22 01:01:01;;;;;;;;;;;23.60;37.80;;;;;;1596801;73;766;-63
2021/03/22 01:03:04;;;;;;;;;;;23.70;37.90;;;;;;1596305;72;1236;-61
2021/03/22 01:05:06;;;;;;;;;;;23.70;37.90;;;;;;1601036;72;758;-60
2021/03/22 01:07:08;;;;;;;;;;;23.80;37.80;;;;;;1599543;73;815;-61
2021/03/22 01:09:10;;;;;;;;;;;23.70;37.80;;;;;;1602468;72;813;-62
2021/03/22 01:11:16;;;;;;;;;;;23.70;37.70;;;;;;1597594;73;794;-60
2021/03/22 01:13:19;;;;;;;;;;;23.80;37.60;;;;;;1599700;72;1149;-60
2021/03/22 01:15:21;;;;;;;;;;;23.80;37.60;;;;;;1594038;72;970;-58
2021/03/22 01:17:23;;;;;;;;;;;23.80;37.60;;;;;;1601322;73;796;-59
2021/03/22 01:19:26;;;;;;;;;;;23.80;37.70;;;;;;1599961;73;1931;-59
2021/03/22 01:21:29;;;;;;;;;;;23.70;37.80;;;;;;1595223;73;1120;-59
2021/03/22 01:23:31;;;;;;;;;;;23.70;37.80;;;;;;1595643;72;791;-61
2021/03/22 01:25:33;;;;;;;;;;;23.60;37.60;;;;;;1596755;73;678;-59
2021/03/22 01:27:36;;;;;;;;;;;23.70;37.60;;;;;;1592214;72;676;-60
2021/03/22 01:29:39;;;;;;;;;;;23.60;37.50;;;;;;1598470;73;997;-59
2021/03/22 01:31:41;;;;;;;;;;;23.70;37.50;;;;;;1591340;72;1109;-59
2021/03/22 01:33:45;;;;;;;;;;;23.80;37.40;;;;;;1602543;73;750;-59
2021/03/22 01:35:46;;;;;;;;;;;23.80;37.10;;;;;;1595112;73;677;-58
2021/03/22 01:37:48;;;;;;;;;;;23.90;37.20;;;;;;1594886;73;820;-60
2021/03/22 01:39:50;;;;;;;;;;;23.90;37.10;;;;;;1596828;72;1937;-60
2021/03/22 01:42:03;;;;;;;;;;;24.00;36.90;;;;;;1599809;72;1178;-59
2021/03/22 01:44:12;;;;;;;;;;;24.00;36.80;;;;;;1598786;73;781;-60
2021/03/22 01:46:14;;;;;;;;;;;23.90;36.80;;;;;;1600914;73;820;-62
2021/03/22 01:48:16;;;;;;;;;;;23.90;36.90;;;;;;1599423;73;632;-60
2021/03/22 01:50:19;;;;;;;;;;;23.90;36.90;;;;;;1603850;72;764;-60
2021/03/22 01:52:21;;;;;;;;;;;23.80;36.90;;;;;;1606575;72;1171;-61
2021/03/22 01:54:23;;;;;;;;;;;23.80;37.00;;;;;;1594114;72;855;-59
2021/03/22 01:56:26;;;;;;;;;;;23.80;37.00;;;;;;1594339;72;854;-61
2021/03/22 01:58:28;;;;;;;;;;;23.90;37.00;;;;;;1602503;73;757;-61
2021/03/22 02:00:32;;;;;;;;;;;23.90;36.90;;;;;;1597442;73;1933;-61
2021/03/22 02:02:34;;;;;;;;;;;23.90;36.80;;;;;;1588699;72;1240;-59
2021/03/22 02:04:36;;;;;;;;;;;24.00;36.70;;;;;;1595365;72;824;-58
2021/03/22 02:06:38;;;;;;;;;;;23.90;36.60;;;;;;1596909;73;908;-60
2021/03/22 02:08:40;;;;;;;;;;;24.00;36.50;;;;;;1597573;73;756;-60
2021/03/22 02:10:42;;;;;;;;;;;24.00;36.60;;;;;;1595799;73;747;-62
2021/03/22 02:12:44;;;;;;;;;;;23.90;36.60;;;;;;1609735;73;1139;-62
2021/03/22 02:14:46;;;;;;;;;;;23.90;36.60;;;;;;1601756;72;767;-63
2021/03/22 02:16:56;;;;;;;;;;;23.90;36.50;;;;;;1598800;73;742;-62
2021/03/22 02:19:11;;;;;;;;;;;23.90;36.50;;;;;;1594769;73;738;-61
2021/03/22 02:21:18;;;;;;;;;;;24.00;36.50;;;;;;1575955;72;1932;-60
2021/03/22 02:23:25;;;;;;;;;;;23.90;36.60;;;;;;1606849;73;1059;-61
2021/03/22 02:25:37;;;;;;;;;;;23.80;36.60;;;;;;1601300;73;1051;-62
2021/03/22 02:27:57;;;;;;;;;;;23.80;36.80;;;;;;1592033;73;763;-61
2021/03/22 02:30:10;;;;;;;;;;;23.70;36.90;;;;;;1594259;73;793;-61
2021/03/22 02:32:23;;;;;;;;;;;23.70;37.00;;;;;;1599468;73;1157;-58
2021/03/22 02:34:29;;;;;;;;;;;23.70;37.10;;;;;;1588288;73;743;-59
2021/03/22 02:36:44;;;;;;;;;;;23.80;37.00;;;;;;1602639;73;782;-59
2021/03/22 02:38:47;;;;;;;;;;;23.70;37.00;;;;;;1604682;73;802;-58
2021/03/22 02:40:53;;;;;;;;;;;23.60;37.10;;;;;;1599973;73;1939;-59
2021/03/22 02:42:55;;;;;;;;;;;23.60;37.00;;;;;;1596112;73;1517;-60
2021/03/22 02:44:57;;;;;;;;;;;23.60;37.00;;;;;;1587497;73;783;-60
2021/03/22 02:47:00;;;;;;;;;;;23.60;37.10;;;;;;1593797;73;768;-60
2021/03/22 02:49:05;;;;;;;;;;;23.60;37.00;;;;;;1602988;73;759;-60
2021/03/22 02:51:08;;;;;;;;;;;23.70;37.10;;;;;;1604806;73;778;-61
2021/03/22 02:53:12;;;;;;;;;;;23.60;37.10;;;;;;1595512;73;1208;-60
2021/03/22 02:55:15;;;;;;;;;;;23.50;37.40;;;;;;1596542;73;805;-61
2021/03/22 02:57:22;;;;;;;;;;;23.50;37.70;;;;;;1604845;72;1008;-58
2021/03/22 02:59:28;;;;;;;;;;;23.40;37.60;;;;;;1595991;73;1163;-59
2021/03/22 03:01:31;;;;;;;;;;;23.50;37.70;;;;;;1587579;73;1943;-58
2021/03/22 03:03:33;;;;;;;;;;;23.50;37.80;;;;;;1574506;72;1703;-61
2021/03/22 03:05:35;;;;;;;;;;;23.40;37.70;;;;;;1592183;73;753;-62
2021/03/22 03:07:37;;;;;;;;;;;23.40;37.70;;;;;;1578089;73;799;-61
2021/03/22 03:09:39;;;;;;;;;;;23.40;37.70;;;;;;1599995;73;668;-60
2021/03/22 03:11:41;;;;;;;;;;;23.50;37.80;;;;;;1596873;73;1156;-59
2021/03/22 03:13:43;;;;;;;;;;;23.40;37.60;;;;;;1595644;73;651;-59
2021/03/22 03:15:45;;;;;;;;;;;23.50;37.70;;;;;;1603474;73;771;-61
2021/03/22 03:17:47;;;;;;;;;;;23.50;37.60;;;;;;1595929;73;798;-60
2021/03/22 03:19:51;;;;;;;;;;;23.50;37.60;;;;;;1602240;73;1929;-60
2021/03/22 03:21:53;;;;;;;;;;;23.50;37.50;;;;;;1597749;73;1151;-59
2021/03/22 03:23:54;;;;;;;;;;;23.60;37.20;;;;;;1585728;72;747;-62
2021/03/22 03:25:57;;;;;;;;;;;23.80;37.10;;;;;;1610167;73;753;-61
2021/03/22 03:27:58;;;;;;;;;;;23.70;37.00;;;;;;1605776;73;661;-58
2021/03/22 03:30:00;;;;;;;;;;;23.80;37.00;;;;;;1598940;72;727;-61
2021/03/22 03:32:03;;;;;;;;;;;23.70;37.10;;;;;;1600352;72;1154;-59
2021/03/22 03:34:05;;;;;;;;;;;23.70;37.20;;;;;;1594803;73;790;-61
2021/03/22 03:36:07;;;;;;;;;;;23.70;37.20;;;;;;1603115;73;759;-60
2021/03/22 03:38:09;;;;;;;;;;;23.60;37.30;;;;;;1603060;71;212749;-81
2021/03/22 03:40:12;;;;;;;;;;;23.60;37.60;;;;;;1603672;72;1940;-80
2021/03/22 03:42:14;;;;;;;;;;;23.50;37.80;;;;;;1600477;72;784;-79
2021/03/22 03:44:16;;;;;;;;;;;23.50;38.10;;;;;;1605735;73;1265;-80
2021/03/22 03:46:17;;;;;;;;;;;23.40;37.80;;;;;;1602036;73;768;-79
2021/03/22 03:48:21;;;;;;;;;;;23.40;37.90;;;;;;1604384;73;769;-79
2021/03/22 03:50:24;;;;;;;;;;;23.40;38.10;;;;;;1607527;73;775;-79
2021/03/22 03:52:26;;;;;;;;;;;23.40;38.30;;;;;;1607156;73;1036;-79
2021/03/22 03:54:28;;;;;;;;;;;23.40;38.20;;;;;;1608304;72;1157;-79
2021/03/22 03:56:30;;;;;;;;;;;23.30;38.30;;;;;;1607810;73;750;-80
2021/03/22 03:58:32;;;;;;;;;;;23.40;38.40;;;;;;1610521;73;739;-79
2021/03/22 04:00:34;;;;;;;;;;;23.40;38.40;;;;;;1600638;73;1938;-79
2021/03/22 04:02:36;;;;;;;;;;;23.40;38.60;;;;;;1602375;73;920;-79
2021/03/22 04:04:38;;;;;;;;;;;23.30;38.50;;;;;;1617027;73;1233;-80
2021/03/22 04:06:40;;;;;;;;;;;23.30;38.50;;;;;;1607329;73;785;-79
2021/03/22 04:08:43;;;;;;;;;;;23.40;38.60;;;;;;1612908;73;747;-83
2021/03/22 04:10:45;;;;;;;;;;;23.40;38.60;;;;;;1616316;73;749;-79
2021/03/22 04:12:47;;;;;;;;;;;23.40;38.80;;;;;;1603099;73;748;-79
2021/03/22 04:14:48;;;;;;;;;;;23.40;38.90;;;;;;1612348;73;1173;-79
2021/03/22 04:16:51;;;;;;;;;;;23.40;38.60;;;;;;1608641;73;770;-78
2021/03/22 04:18:52;;;;;;;;;;;23.40;38.60;;;;;;1605720;73;745;-80
2021/03/22 04:20:54;;;;;;;;;;;23.50;38.90;;;;;;1603556;72;1933;-78
2021/03/22 04:22:56;;;;;;;;;;;23.50;38.90;;;;;;1610743;73;748;-78
2021/03/22 04:24:58;;;;;;;;;;;23.40;38.70;;;;;;1609072;73;1195;-79
2021/03/22 04:27:00;;;;;;;;;;;23.40;38.60;;;;;;1610654;73;726;-79
2021/03/22 04:29:02;;;;;;;;;;;23.50;38.80;;;;;;1605956;73;775;-79
2021/03/22 04:31:04;;;;;;;;;;;23.40;38.50;;;;;;1605646;73;806;-79
2021/03/22 04:33:06;;;;;;;;;;;23.50;38.60;;;;;;1597302;72;749;-80
2021/03/22 04:35:08;;;;;;;;;;;23.50;38.60;;;;;;1606331;73;1127;-78
2021/03/22 04:37:10;;;;;;;;;;;23.50;38.50;;;;;;1611609;73;639;-80
2021/03/22 04:39:11;;;;;;;;;;;23.50;38.40;;;;;;1603589;73;753;-80
2021/03/22 04:41:13;;;;;;;;;;;23.50;38.30;;;;;;1605812;73;1936;-80
2021/03/22 04:43:15;;;;;;;;;;;23.60;38.50;;;;;;1596247;72;801;-79
2021/03/22 04:45:18;;;;;;;;;;;23.50;38.50;;;;;;1602728;73;1187;-79
2021/03/22 04:47:20;;;;;;;;;;;23.50;38.60;;;;;;1597454;73;753;-80
2021/03/22 04:49:22;;;;;;;;;;;23.50;38.50;;;;;;1599173;73;766;-80
2021/03/22 04:51:24;;;;;;;;;;;23.50;38.50;;;;;;1607769;73;755;-79
2021/03/22 04:53:26;;;;;;;;;;;23.60;38.40;;;;;;1597602;72;821;-79
2021/03/22 04:55:27;;;;;;;;;;;23.50;38.50;;;;;;1610412;73;1158;-79
2021/03/22 04:57:30;;;;;;;;;;;23.50;38.40;;;;;;1615577;73;757;-79
2021/03/22 04:59:32;;;;;;;;;;;23.60;38.40;;;;;;1596188;73;773;-79
2021/03/22 05:01:34;;;;;;;;;;;23.60;38.40;;;;;;1605503;73;1941;-79
2021/03/22 05:03:36;;;;;;;;;;;23.50;38.40;;;;;;1599968;73;790;-79
2021/03/22 05:05:38;;;;;;;;;;;23.60;38.30;;;;;;1599250;72;1222;-81
2021/03/22 05:07:39;;;;;;;;;;;23.50;38.30;;;;;;1599828;73;772;-79
2021/03/22 05:09:41;;;;;;;;;;;23.60;38.20;;;;;;1601752;72;740;-79
2021/03/22 05:11:43;;;;;;;;;;;23.50;38.20;;;;;;1600680;73;769;-80
2021/03/22 05:13:46;;;;;;;;;;;23.50;38.20;;;;;;1594163;73;1175;-79
2021/03/22 05:15:47;;;;;;;;;;;23.50;38.20;;;;;;1606469;73;773;-80
2021/03/22 05:17:49;;;;;;;;;;;23.60;38.10;;;;;;1611027;73;805;-79
2021/03/22 05:19:51;;;;;;;;;;;23.60;38.00;;;;;;1611151;73;739;-79
2021/03/22 05:21:56;;;;;;;;;;;23.60;38.10;;;;;;1602885;73;1941;-80
2021/03/22 05:23:58;;;;;;;;;;;23.60;38.00;;;;;;1609389;73;1157;-80
2021/03/22 05:26:00;;;;;;;;;;;23.60;37.90;;;;;;1601673;73;744;-78
2021/03/22 05:28:02;;;;;;;;;;;23.60;38.00;;;;;;1603968;73;795;-79
2021/03/22 05:30:06;;;;;;;;;;;23.60;37.90;;;;;;1598865;73;747;-78
2021/03/22 05:32:27;;;;;;;;;;;23.60;37.80;;;;;;1603062;73;895;-78
2021/03/22 05:34:29;;;;;;;;;;;23.70;37.90;;;;;;1604376;72;1185;-77
2021/03/22 05:36:31;;;;;;;;;;;23.60;38.00;;;;;;1598705;73;793;-81
2021/03/22 05:38:33;;;;;;;;;;;23.60;38.00;;;;;;1600336;73;757;-79
2021/03/22 05:40:47;;;;;;;;;;;23.60;37.80;;;;;;1595335;73;683;-78
2021/03/22 05:43:09;;;;;;;;;;;23.60;37.80;;;;;;1605620;73;784;-80
2021/03/22 05:45:12;;;;;;;;;;;23.60;37.80;;;;;;1602181;72;1242;-81
2021/03/22 05:47:21;;;;;;;;;;;23.60;38.00;;;;;;1603704;73;1545;-79
2021/03/22 05:49:40;;;;;;;;;;;23.70;38.10;;;;;;1606048;73;761;-77
2021/03/22 05:52:01;;;;;;;;;;;23.60;38.20;;;;;;1607972;73;740;-77
2021/03/22 05:54:20;;;;;;;;;;;23.70;38.20;;;;;;1537020;76;1184;-77
2021/03/22 05:56:23;;;;;;;;;;;23.70;38.10;;;;;;1533073;76;1170;-81
2021/03/22 05:58:43;;;;;;;;;;;23.60;37.80;;;;;;1526170;76;1769;-82
2021/03/22 06:00:49;;;;;;;;;;;23.60;38.00;;;;;;1604629;73;1933;-79
2021/03/22 06:02:53;;;;;;;;;;;23.60;37.80;;;;;;1609243;73;769;-80
2021/03/22 06:04:55;;;;;;;;;;;23.70;37.90;;;;;;1604108;73;1165;-82
2021/03/22 06:06:57;;;;;;;;;;;23.70;38.10;;;;;;1602783;73;737;-83
2021/03/22 06:09:07;;;;;;;;;;;23.70;37.90;;;;;;1601085;72;812;-82
2021/03/22 06:11:16;;;;;;;;;;;23.70;37.80;;;;;;1612419;73;749;-81
2021/03/22 06:13:19;;;;;;;;;;;23.70;37.60;;;;;;1612384;73;766;-84
2021/03/22 06:15:28;;;;;;;;;;;23.70;37.40;;;;;;1604749;73;1226;-78
2021/03/22 06:17:37;;;;;;;;;;;23.80;37.40;;;;;;1604285;72;707;-79
2021/03/22 06:19:41;;;;;;;;;;;23.80;37.70;;;;;;1611214;73;682;-80
2021/03/22 06:21:44;;;;;;;;;;;23.70;37.70;;;;;;1602433;73;1935;-78
2021/03/22 06:23:46;;;;;;;;;;;23.80;37.60;;;;;;1610150;73;1169;-79
2021/03/22 06:25:48;;;;;;;;;;;23.80;37.50;;;;;;1609777;72;765;-79
2021/03/22 06:27:53;;;;;;;;;;;23.80;37.60;;;;;;1602638;73;811;-80
2021/03/22 06:29:55;;;;;;;;;;;23.80;37.60;;;;;;1604608;73;768;-79
2021/03/22 06:31:59;;;;;;;;;;;23.80;37.60;;;;;;1605420;73;790;-80
2021/03/22 06:34:02;;;;;;;;;;;23.90;38.00;;;;;;1609820;73;1145;-77
2021/03/22 06:36:04;;;;;;;;;;;23.80;36.70;;;;;;1607363;73;756;-78
2021/03/22 06:38:11;;;;;;;;;;;23.90;36.80;;;;;;1599693;73;748;-78
2021/03/22 06:40:14;;;;;;;;;;;23.90;36.30;;;;;;1605981;73;797;-78
2021/03/22 06:42:18;;;;;;;;;;;23.90;36.30;;;;;;1603610;73;1966;-78
2021/03/22 06:44:20;;;;;;;;;;;24.00;36.00;;;;;;1607020;73;1271;-79
2021/03/22 06:46:24;;;;;;;;;;;23.90;35.70;;;;;;1614369;73;757;-79
2021/03/22 06:48:29;;;;;;;;;;;23.90;35.60;;;;;;1611316;73;724;-78
2021/03/22 06:50:31;;;;;;;;;;;23.90;35.70;;;;;;1608922;73;800;-77
2021/03/22 06:52:40;;;;;;;;;;;23.90;35.90;;;;;;1608484;73;745;-79
2021/03/22 06:54:43;;;;;;;;;;;24.10;35.80;;;;;;1613684;73;1177;-80
2021/03/22 06:56:47;;;;;;;;;;;24.30;35.00;;;;;;1609307;72;729;-79
2021/03/22 06:58:49;;;;;;;;;;;24.50;34.40;;;;;;1606472;73;1653;-79
2021/03/22 07:00:51;;;;;;;;;;;24.60;33.90;;;;;;1607747;73;742;-79
2021/03/22 07:02:57;;;;;;;;;;;24.60;33.60;;;;;;1613624;73;1948;-77
2021/03/22 07:04:57;;;;;;;;;;;24.70;33.40;;;;;;1611696;73;1146;-77
2021/03/22 07:07:13;;;;;;;;;;;24.70;33.60;;;;;;1571119;73;767;-78
2021/03/22 07:09:19;;;;;;;;;;;24.70;33.60;;;;;;1614095;72;695;-77
2021/03/22 07:11:22;;;;;;;;;;;24.70;32.90;;;;;;1606718;72;1731;-79
2021/03/22 07:13:24;;;;;;;;;;;24.70;33.00;;;;;;1610082;73;748;-78
2021/03/22 07:15:28;;;;;;;;;;;24.80;32.60;;;;;;1608452;72;1206;-78
2021/03/22 07:17:30;;;;;;;;;;;24.80;32.10;;;;;;1600715;73;794;-80
2021/03/22 07:19:32;;;;;;;;;;;24.80;31.70;;;;;;1617319;72;719;-78
2021/03/22 07:21:34;;;;;;;;;;;24.80;31.60;;;;;;1605160;73;1935;-79
2021/03/22 07:23:37;;;;;;;;;;;24.80;31.80;;;;;;1604410;73;793;-78
2021/03/22 07:25:41;;;;;;;;;;;24.70;31.80;;;;;;1604236;72;1094;-80
2021/03/22 07:27:44;;;;;;;;;;;24.80;31.70;;;;;;1613190;72;766;-78
2021/03/22 07:30:04;;;;;;;;;;;24.70;31.90;;;;;;1601145;73;1031;-80
2021/03/22 07:32:08;;;;;;;;;;;24.70;32.10;;;;;;1602542;73;728;-76
2021/03/22 07:34:29;;;;;;;;;;;24.70;32.10;;;;;;1605922;72;1166;-76
2021/03/22 07:36:39;;;;;;;;;;;24.80;32.00;;;;;;1605192;73;776;-75
2021/03/22 07:38:45;;;;;;;;;;;24.60;31.70;;;;;;1607595;73;1028;-74
2021/03/22 07:40:57;;;;;;;;;;;24.50;31.50;;;;;;1605806;73;748;-73
2021/03/22 07:43:01;;;;;;;;;;;24.40;31.70;;;;;;1609504;72;1940;-74
2021/03/22 07:45:07;;;;;;;;;;;24.30;31.30;;;;;;1605278;73;1171;-74
2021/03/22 07:47:14;;;;;;;;;;;24.20;30.40;;;;;;1613167;72;739;-75
2021/03/22 07:49:32;;;;;;;;;;;24.20;30.60;;;;;;1608742;73;1683;-75
2021/03/22 07:51:52;;;;;;;;;;;24.10;30.20;;;;;;1610986;73;1171;-73
2021/03/22 07:54:04;;;;;;;;;;;24.00;30.00;;;;;;1601337;73;1150;-74
2021/03/22 07:56:13;;;;;;;;;;;24.00;30.20;;;;;;1527369;77;1019;-74
2021/03/22 07:58:17;;;;;;;;;;;23.90;29.60;;;;;;1602747;73;868;-74
2021/03/22 08:00:37;;;;;;;;;;;23.90;29.80;;;;;;1612177;73;758;-74
2021/03/22 08:02:55;;;;;;;;;;;23.90;29.40;;;;;;1613603;73;1940;-75
2021/03/22 08:04:59;;;;;;;;;;;23.80;29.50;;;;;;1609691;72;1163;-74
2021/03/22 08:07:05;;;;;;;;;;;23.80;29.40;;;;;;1603110;72;1567;-74
2021/03/22 08:09:14;;;;;;;;;;;23.80;29.40;;;;;;1616568;73;742;-75
2021/03/22 08:11:36;;;;;;;;;;;23.70;29.60;;;;;;1609115;73;1452;-75
2021/03/22 08:13:39;;;;;;;;;;;23.70;28.80;;;;;;1518333;77;1095;-74
2021/03/22 08:15:45;;;;;;;;;;;23.80;28.60;;;;;;1520365;78;1184;-74
2021/03/22 08:17:49;;;;;;;;;;;23.70;28.20;;;;;;1508991;77;1029;-75
2021/03/22 08:19:55;;;;;;;;;;;23.60;28.00;;;;;;1595477;72;831;-75
2021/03/22 08:22:01;;;;;;;;;;;23.60;28.50;;;;;;1612699;73;1928;-75
2021/03/22 08:24:05;;;;;;;;;;;23.60;28.50;;;;;;1616292;72;1177;-74
2021/03/22 08:26:07;;;;;;;;;;;23.60;28.70;;;;;;1611735;73;728;-73
2021/03/22 08:28:27;;;;;;;;;;;23.60;28.50;;;;;;1601841;72;739;-74
2021/03/22 08:30:30;;;;;;;;;;;23.50;28.10;;;;;;1608279;72;738;-74
2021/03/22 08:32:42;;;;;;;;;;;23.50;28.00;;;;;;1611675;73;749;-75
2021/03/22 08:34:51;;;;;;;;;;;23.50;28.00;;;;;;1609022;72;1173;-73
2021/03/22 08:36:56;;;;;;;;;;;23.50;27.40;;;;;;1616114;73;791;-73
2021/03/22 08:39:00;;;;;;;;;;;23.40;27.20;;;;;;1611777;73;812;-74
2021/03/22 08:41:02;;;;;;;;;;;23.40;27.60;;;;;;1606052;73;1111;-74
2021/03/22 08:43:04;;;;;;;;;;;23.40;27.80;;;;;;1605345;73;1957;-77
2021/03/22 08:45:07;;;;;;;;;;;23.40;27.80;;;;;;1608726;72;1253;-74
2021/03/22 08:47:24;;;;;;;;;;;23.30;27.80;;;;;;1610513;73;2000;-74
2021/03/22 08:49:43;;;;;;;;;;;23.20;27.30;;;;;;1607795;73;706;-75
2021/03/22 08:51:45;;;;;;;;;;;23.20;27.90;;;;;;1613115;72;781;-75
2021/03/22 08:53:47;;;;;;;;;;;23.20;28.30;;;;;;1611651;73;1158;-75
2021/03/22 08:55:59;;;;;;;;;;;23.10;28.70;;;;;;1609878;72;707;-75
2021/03/22 08:58:04;;;;;;;;;;;23.10;29.00;;;;;;1608199;72;1574;-75
2021/03/22 09:00:24;;;;;;;;;;;23.20;29.20;;;;;;1615468;73;1455;-75
2021/03/22 09:02:26;;;;;;;;;;;23.20;29.50;;;;;;1611569;72;1933;-75
2021/03/22 09:04:30;;;;;;;;;;;23.20;29.70;;;;;;1614694;72;1180;-75
2021/03/22 09:06:32;;;;;;;;;;;23.20;29.90;;;;;;1615967;73;790;-75
2021/03/22 09:08:34;;;;;;;;;;;23.20;30.00;;;;;;1617120;72;812;-76
2021/03/22 09:10:38;;;;;;;;;;;23.30;30.20;;;;;;1603134;72;772;-75
2021/03/22 09:12:44;;;;;;;;;;;23.20;30.30;;;;;;1615784;73;830;-76
2021/03/22 09:14:47;;;;;;;;;;;23.30;30.40;;;;;;1609201;73;1197;-75
2021/03/22 09:16:49;;;;;;;;;;;23.20;30.50;;;;;;1608437;72;746;-76
2021/03/22 09:19:11;;;;;;;;;;;23.30;30.70;;;;;;1613244;73;674;-75
2021/03/22 09:21:20;;;;;;;;;;;23.30;30.70;;;;;;1617271;73;741;-75
2021/03/22 09:23:26;;;;;;;;;;;23.30;30.80;;;;;;1597281;73;1924;-75
2021/03/22 09:25:48;;;;;;;;;;;23.40;31.00;;;;;;1606739;73;1105;-75
2021/03/22 09:27:50;;;;;;;;;;;23.40;31.00;;;;;;1608259;72;658;-74
2021/03/22 09:29:59;;;;;;;;;;;23.30;31.10;;;;;;1588279;74;768;-75
2021/03/22 09:32:02;;;;;;;;;;;23.40;31.10;;;;;;1613693;73;793;-76
2021/03/22 09:34:05;;;;;;;;;;;23.40;31.30;;;;;;1605544;72;1204;-75
2021/03/22 09:36:11;;;;;;;;;;;23.30;31.30;;;;;;1612163;72;736;-75
2021/03/22 09:38:30;;;;;;;;;;;23.30;31.30;;;;;;1603216;73;949;-75
2021/03/22 09:40:34;;;;;;;;;;;23.40;31.30;;;;;;1593799;73;740;-75
2021/03/22 09:42:36;;;;;;;;;;;23.40;31.50;;;;;;1585815;73;1949;-76
2021/03/22 09:44:38;;;;;;;;;;;23.50;31.60;;;;;;1597021;73;1206;-75
2021/03/22 09:46:40;;;;;;;;;;;23.40;31.50;;;;;;1583334;73;775;-78
2021/03/22 09:48:42;;;;;;;;;;;23.40;31.50;;;;;;1590267;73;789;-75
2021/03/22 09:50:45;;;;;;;;;;;23.50;31.70;;;;;;1577850;74;755;-76
2021/03/22 09:52:54;;;;;;;;;;;23.50;31.80;;;;;;1603701;73;735;-75
2021/03/22 09:54:56;;;;;;;;;;;23.40;31.60;;;;;;1617195;73;1159;-75
2021/03/22 09:57:14;;;;;;;;;;;23.50;31.80;;;;;;1616991;72;752;-75
2021/03/22 09:59:23;;;;;;;;;;;23.50;31.80;;;;;;1613658;72;675;-76
2021/03/22 10:01:35;;;;;;;;;;;23.50;31.90;;;;;;1598539;73;732;-76
2021/03/22 10:03:37;;;;;;;;;;;23.40;31.80;;;;;;1609490;72;1934;-76
2021/03/22 10:05:50;;;;;;;;;;;23.40;31.80;;;;;;1612201;72;1115;-75
2021/03/22 10:08:08;;;;;;;;;;;23.40;31.90;;;;;;1607075;73;754;-75
2021/03/22 10:10:14;;;;;;;;;;;23.40;31.90;;;;;;1608120;72;748;-75
2021/03/22 10:12:17;;;;;;;;;;;23.40;32.00;;;;;;1610974;72;810;-76
2021/03/22 10:14:33;;;;;;;;;;;23.40;32.00;;;;;;1617450;73;1224;-76
2021/03/22 10:16:36;;;;;;;;;;;23.50;32.20;;;;;;1613012;73;705;-76
2021/03/22 10:18:44;;;;;;;;;;;23.40;32.10;;;;;;1617663;73;832;-77
2021/03/22 10:20:47;;;;;;;;;;;23.40;32.10;;;;;;1613917;72;731;-76
2021/03/22 10:22:49;;;;;;;;;;;23.50;32.30;;;;;;1610723;73;1944;-76
2021/03/22 10:24:52;;;;;;;;;;;23.40;32.10;;;;;;1615074;73;1185;-76
2021/03/22 10:26:55;;;;;;;;;;;23.50;32.40;;;;;;1616858;73;749;-75
2021/03/22 10:29:11;;;;;;;;;;;23.40;32.20;;;;;;1612421;73;762;-76
2021/03/22 10:31:20;;;;;;;;;;;23.50;32.40;;;;;;1613799;72;1062;-76
2021/03/22 10:33:22;;;;;;;;;;;23.40;32.20;;;;;;1612850;73;766;-76
2021/03/22 10:35:24;;;;;;;;;;;23.50;32.40;;;;;;1607667;72;1201;-76
2021/03/22 10:37:35;;;;;;;;;;;23.50;32.30;;;;;;1613082;73;784;-76
2021/03/22 10:39:39;;;;;;;;;;;23.50;32.40;;;;;;1616680;72;728;-77
2021/03/22 10:41:42;;;;;;;;;;;23.50;32.40;;;;;;1601614;73;772;-75
2021/03/22 10:43:44;;;;;;;;;;;23.50;32.40;;;;;;1608671;72;1933;-75
2021/03/22 10:45:46;;;;;;;;;;;23.50;32.40;;;;;;1617558;73;1256;-76
2021/03/22 10:47:47;;;;;;;;;;;23.50;32.50;;;;;;1613166;73;754;-77
2021/03/22 10:49:50;;;;;;;;;;;23.50;32.40;;;;;;1612477;73;817;-77
2021/03/22 10:51:53;;;;;;;;;;;23.50;32.30;;;;;;1617353;73;809;-78
2021/03/22 10:53:56;;;;;;;;;;;23.50;32.30;;;;;;1613329;73;1183;-76
2021/03/22 10:56:00;;;;;;;;;;;23.50;32.20;;;;;;1616354;73;1055;-76
2021/03/22 10:58:02;;;;;;;;;;;23.50;32.20;;;;;;1613885;73;739;-76
2021/03/22 11:00:08;;;;;;;;;;;23.50;32.20;;;;;;1607334;73;765;-76
2021/03/22 11:02:27;;;;;;;;;;;23.50;32.10;;;;;;1606875;73;930;-75
2021/03/22 11:04:31;;;;;;;;;;;23.50;32.20;;;;;;1615025;73;1229;-78
2021/03/22 11:06:33;;;;;;;;;;;23.50;32.10;;;;;;1616873;73;811;-76
2021/03/22 11:08:39;;;;;;;;;;;23.50;32.10;;;;;;1604720;73;733;-72
2021/03/22 11:10:41;;;;;;;;;;;23.50;32.10;;;;;;1608785;73;759;-76
2021/03/22 11:12:43;;;;;;;;;;;23.60;32.10;;;;;;1603186;72;774;-76
2021/03/22 11:14:45;;;;;;;;;;;23.50;32.10;;;;;;1597032;73;1147;-77
2021/03/22 11:16:47;;;;;;;;;;;23.50;32.20;;;;;;1609011;73;792;-77
2021/03/22 11:18:50;;;;;;;;;;;23.50;32.20;;;;;;1600514;73;757;-77
2021/03/22 11:20:53;;;;;;;;;;;23.50;32.30;;;;;;1602112;72;720;-77
2021/03/22 11:22:55;;;;;;;;;;;23.50;32.30;;;;;;1608531;72;1934;-78
2021/03/22 11:24:57;;;;;;;;;;;23.50;32.30;;;;;;1584163;73;1185;-75
2021/03/22 11:27:00;;;;;;;;;;;23.50;32.30;;;;;;1603658;73;955;-75
2021/03/22 11:29:18;;;;;;;;;;;23.50;32.30;;;;;;1612208;73;754;-76
2021/03/22 11:31:27;;;;;;;;;;;23.50;32.30;;;;;;1599109;73;758;-76
2021/03/22 11:33:36;;;;;;;;;;;23.50;32.30;;;;;;1599162;73;745;-77
2021/03/22 11:35:38;;;;;;;;;;;23.50;32.30;;;;;;1607515;72;1091;-76
2021/03/22 11:37:42;;;;;;;;;;;23.50;32.30;;;;;;1617404;73;755;-74
2021/03/22 11:39:43;;;;;;;;;;;23.50;32.30;;;;;;1610085;73;1650;-74
2021/03/22 11:41:47;;;;;;;;;;;23.50;32.30;;;;;;1602502;72;794;-78
2021/03/22 11:43:50;;;;;;;;;;;23.50;32.30;;;;;;1595226;72;1934;-76
2021/03/22 11:45:52;;;;;;;;;;;23.50;32.30;;;;;;1608953;73;1525;-76
2021/03/22 11:47:54;;;;;;;;;;;23.50;32.30;;;;;;1601252;73;790;-73
2021/03/22 11:49:56;;;;;;;;;;;23.50;32.30;;;;;;1608541;72;740;-74
2021/03/22 11:52:00;;;;;;;;;;;23.50;32.30;;;;;;1598237;73;797;-73
2021/03/22 11:54:08;;;;;;;;;;;23.50;32.30;;;;;;1601512;72;1462;-74
2021/03/22 11:56:20;;;;;;;;;;;23.50;32.30;;;;;;1603563;72;736;-74
2021/03/22 11:58:36;;;;;;;;;;;23.50;32.30;;;;;;1599990;72;1085;-76
2021/03/22 12:00:38;;;;;;;;;;;23.50;32.20;;;;;;1598701;72;729;-76
2021/03/22 12:02:49;;;;;;;;;;;23.50;32.20;;;;;;1605346;72;1936;-76
2021/03/22 12:04:55;;;;;;;;;;;23.50;32.20;;;;;;1604886;73;1169;-77
2021/03/22 12:07:05;;;;;;;;;;;23.50;32.20;;;;;;1610720;72;802;-76
2021/03/22 12:09:11;;;;;;;;;;;23.40;32.10;;;;;;1607930;73;812;-76
2021/03/22 12:11:14;;;;;;;;;;;23.50;32.30;;;;;;1611626;73;1464;-75
2021/03/22 12:13:16;;;;;;;;;;;23.50;32.30;;;;;;1604917;73;770;-76
2021/03/22 12:15:18;;;;;;;;;;;23.50;32.30;;;;;;1609609;73;1085;-76
2021/03/22 12:17:25;;;;;;;;;;;23.50;32.30;;;;;;1610945;72;778;-76
2021/03/22 12:19:34;;;;;;;;;;;23.50;32.30;;;;;;1616869;73;985;-76
2021/03/22 12:21:36;;;;;;;;;;;23.50;32.30;;;;;;1616596;73;795;-77
2021/03/22 12:23:39;;;;;;;;;;;23.50;32.30;;;;;;1613530;73;1930;-75
2021/03/22 12:25:40;;;;;;;;;;;23.50;32.30;;;;;;1603501;73;1035;-75